sensor_id;sensor_type;location;lat;lon;timestamp;pressure;altitude;pressure_sealevel;temperature;humidity
37848;BME280;23688;33.130;-117.188;2023-07-30T00:02:20;99187.41;;;27.42;70.10
37848;BME280;23688;33.130;-117.188;2023-07-30T00:04:47;99183.91;;;27.40;66.57
37848;BME280;23688;33.130;-117.188;2023-07-30T00:07:14;99183.00;;;26.83;69.83
37848;BME280;23688;33.130;-117.188;2023-07-30T00:09:40;99189.19;;;26.54;73.55
37848;BME280;23688;33.130;-117.188;2023-07-30T00:12:08;99178.66;;;26.48;73.44
37848;BME280;23688;33.130;-117.188;2023-07-30T00:14:35;99188.72;;;26.69;74.13
37848;BME280;23688;33.130;-117.188;2023-07-30T00:17:02;99186.22;;;26.95;71.98
37848;BME280;23688;33.130;-117.188;2023-07-30T00:19:28;99185.38;;;26.93;70.62
37848;BME280;23688;33.130;-117.188;2023-07-30T00:21:55;99200.75;;;27.13;70.54
37848;BME280;23688;33.130;-117.188;2023-07-30T00:24:22;99195.50;;;27.39;68.49
37848;BME280;23688;33.130;-117.188;2023-07-30T00:26:48;99195.75;;;27.31;67.99
37848;BME280;23688;33.130;-117.188;2023-07-30T00:29:14;99190.63;;;26.96;70.97
37848;BME280;23688;33.130;-117.188;2023-07-30T00:31:41;99194.38;;;26.88;70.87
37848;BME280;23688;33.130;-117.188;2023-07-30T00:34:07;99189.59;;;26.70;71.81
37848;BME280;23688;33.130;-117.188;2023-07-30T00:36:34;99191.69;;;26.26;73.52
37848;BME280;23688;33.130;-117.188;2023-07-30T00:39:00;99193.03;;;26.10;74.67
37848;BME280;23688;33.130;-117.188;2023-07-30T00:41:26;99188.28;;;25.88;75.81
37848;BME280;23688;33.130;-117.188;2023-07-30T00:43:52;99186.53;;;25.51;79.87
37848;BME280;23688;33.130;-117.188;2023-07-30T00:46:19;99202.53;;;25.84;77.99
37848;BME280;23688;33.130;-117.188;2023-07-30T00:48:45;99192.66;;;25.91;77.40
37848;BME280;23688;33.130;-117.188;2023-07-30T00:51:13;99196.69;;;25.70;78.13
37848;BME280;23688;33.130;-117.188;2023-07-30T00:53:41;99188.63;;;25.37;79.75
37848;BME280;23688;33.130;-117.188;2023-07-30T00:56:07;99183.38;;;24.95;82.37
37848;BME280;23688;33.130;-117.188;2023-07-30T00:58:33;99194.41;;;24.75;83.30
37848;BME280;23688;33.130;-117.188;2023-07-30T01:01:01;99187.94;;;24.43;84.90
37848;BME280;23688;33.130;-117.188;2023-07-30T01:03:27;99188.38;;;24.22;87.77
37848;BME280;23688;33.130;-117.188;2023-07-30T01:05:53;99174.53;;;24.06;88.53
37848;BME280;23688;33.130;-117.188;2023-07-30T01:08:20;99188.50;;;24.14;88.93
37848;BME280;23688;33.130;-117.188;2023-07-30T01:10:46;99183.34;;;24.08;89.07
37848;BME280;23688;33.130;-117.188;2023-07-30T01:13:14;99179.34;;;23.82;89.97
37848;BME280;23688;33.130;-117.188;2023-07-30T01:15:42;99175.78;;;23.85;91.18
37848;BME280;23688;33.130;-117.188;2023-07-30T01:18:11;99183.78;;;23.82;90.76
37848;BME280;23688;33.130;-117.188;2023-07-30T01:20:39;99168.94;;;23.73;89.24
37848;BME280;23688;33.130;-117.188;2023-07-30T01:23:06;99177.03;;;23.62;89.47
37848;BME280;23688;33.130;-117.188;2023-07-30T01:25:36;99175.13;;;23.70;89.26
37848;BME280;23688;33.130;-117.188;2023-07-30T01:28:04;99179.97;;;24.00;87.86
37848;BME280;23688;33.130;-117.188;2023-07-30T01:30:41;99166.06;;;23.85;87.01
37848;BME280;23688;33.130;-117.188;2023-07-30T01:33:10;99165.81;;;23.99;86.66
37848;BME280;23688;33.130;-117.188;2023-07-30T01:35:38;99158.06;;;23.88;86.73
37848;BME280;23688;33.130;-117.188;2023-07-30T01:38:04;99176.06;;;23.68;87.31
37848;BME280;23688;33.130;-117.188;2023-07-30T01:40:32;99155.06;;;23.56;90.16
37848;BME280;23688;33.130;-117.188;2023-07-30T01:42:59;99166.53;;;23.56;90.61
37848;BME280;23688;33.130;-117.188;2023-07-30T01:45:25;99172.00;;;23.45;92.48
37848;BME280;23688;33.130;-117.188;2023-07-30T01:47:52;99175.84;;;23.26;94.61
37848;BME280;23688;33.130;-117.188;2023-07-30T01:50:18;99173.25;;;23.23;95.01
37848;BME280;23688;33.130;-117.188;2023-07-30T01:52:45;99161.84;;;23.16;95.40
37848;BME280;23688;33.130;-117.188;2023-07-30T01:55:14;99169.59;;;23.30;94.96
37848;BME280;23688;33.130;-117.188;2023-07-30T01:57:40;99181.97;;;23.29;95.80
37848;BME280;23688;33.130;-117.188;2023-07-30T02:00:07;99190.72;;;23.36;95.20
37848;BME280;23688;33.130;-117.188;2023-07-30T02:02:33;99197.16;;;23.72;93.80
37848;BME280;23688;33.130;-117.188;2023-07-30T02:05:01;99197.16;;;23.76;92.61
37848;BME280;23688;33.130;-117.188;2023-07-30T02:07:29;99192.44;;;23.39;94.33
37848;BME280;23688;33.130;-117.188;2023-07-30T02:09:56;99182.97;;;23.21;95.23
37848;BME280;23688;33.130;-117.188;2023-07-30T02:12:24;99182.28;;;23.10;95.89
37848;BME280;23688;33.130;-117.188;2023-07-30T02:14:50;99185.06;;;22.97;96.57
37848;BME280;23688;33.130;-117.188;2023-07-30T02:17:17;99193.75;;;23.10;96.48
37848;BME280;23688;33.130;-117.188;2023-07-30T02:19:44;99185.97;;;22.98;96.60
37848;BME280;23688;33.130;-117.188;2023-07-30T02:22:10;99178.13;;;22.90;98.20
37848;BME280;23688;33.130;-117.188;2023-07-30T02:24:37;99197.47;;;22.94;98.74
37848;BME280;23688;33.130;-117.188;2023-07-30T02:27:03;99197.44;;;22.95;99.21
37848;BME280;23688;33.130;-117.188;2023-07-30T02:29:30;99188.88;;;22.76;99.75
37848;BME280;23688;33.130;-117.188;2023-07-30T02:31:57;99194.22;;;22.70;100.00
37848;BME280;23688;33.130;-117.188;2023-07-30T02:34:25;99190.06;;;22.52;100.00
37848;BME280;23688;33.130;-117.188;2023-07-30T02:36:51;99196.75;;;22.79;100.00
37848;BME280;23688;33.130;-117.188;2023-07-30T02:39:17;99203.19;;;22.60;100.00
37848;BME280;23688;33.130;-117.188;2023-07-30T02:41:44;99189.91;;;22.64;100.00
37848;BME280;23688;33.130;-117.188;2023-07-30T02:44:10;99183.09;;;22.45;100.00
37848;BME280;23688;33.130;-117.188;2023-07-30T02:46:36;99193.75;;;22.37;100.00
37848;BME280;23688;33.130;-117.188;2023-07-30T02:49:03;99185.13;;;22.20;100.00
37848;BME280;23688;33.130;-117.188;2023-07-30T02:51:29;99200.16;;;22.13;100.00
37848;BME280;23688;33.130;-117.188;2023-07-30T02:53:58;99186.78;;;22.30;100.00
37848;BME280;23688;33.130;-117.188;2023-07-30T02:56:25;99197.06;;;22.55;100.00
37848;BME280;23688;33.130;-117.188;2023-07-30T02:58:51;99199.81;;;22.47;100.00
37848;BME280;23688;33.130;-117.188;2023-07-30T03:01:17;99186.97;;;22.12;100.00
37848;BME280;23688;33.130;-117.188;2023-07-30T03:03:44;99200.16;;;22.13;100.00
37848;BME280;23688;33.130;-117.188;2023-07-30T03:06:10;99202.88;;;22.06;100.00
37848;BME280;23688;33.130;-117.188;2023-07-30T03:08:36;99194.00;;;22.13;100.00
37848;BME280;23688;33.130;-117.188;2023-07-30T03:11:04;99194.81;;;22.19;100.00
37848;BME280;23688;33.130;-117.188;2023-07-30T03:13:30;99204.38;;;22.34;100.00
37848;BME280;23688;33.130;-117.188;2023-07-30T03:15:56;99196.25;;;22.48;100.00
37848;BME280;23688;33.130;-117.188;2023-07-30T03:18:23;99212.78;;;22.69;100.00
37848;BME280;23688;33.130;-117.188;2023-07-30T03:20:49;99192.53;;;22.64;100.00
37848;BME280;23688;33.130;-117.188;2023-07-30T03:23:16;99212.53;;;22.89;100.00
37848;BME280;23688;33.130;-117.188;2023-07-30T03:25:42;99220.47;;;22.90;100.00
37848;BME280;23688;33.130;-117.188;2023-07-30T03:28:08;99212.69;;;22.75;100.00
37848;BME280;23688;33.130;-117.188;2023-07-30T03:30:35;99214.69;;;22.59;100.00
37848;BME280;23688;33.130;-117.188;2023-07-30T03:33:01;99216.44;;;22.58;100.00
37848;BME280;23688;33.130;-117.188;2023-07-30T03:35:27;99215.88;;;22.30;100.00
37848;BME280;23688;33.130;-117.188;2023-07-30T03:37:53;99214.28;;;22.11;100.00
37848;BME280;23688;33.130;-117.188;2023-07-30T03:40:20;99209.16;;;21.95;100.00
37848;BME280;23688;33.130;-117.188;2023-07-30T03:42:46;99222.25;;;22.08;100.00
37848;BME280;23688;33.130;-117.188;2023-07-30T03:45:12;99216.88;;;22.14;100.00
37848;BME280;23688;33.130;-117.188;2023-07-30T03:47:38;99230.84;;;22.33;100.00
37848;BME280;23688;33.130;-117.188;2023-07-30T03:50:05;99236.84;;;22.47;100.00
37848;BME280;23688;33.130;-117.188;2023-07-30T03:52:32;99242.13;;;22.49;100.00
37848;BME280;23688;33.130;-117.188;2023-07-30T03:54:58;99230.88;;;22.31;100.00
37848;BME280;23688;33.130;-117.188;2023-07-30T03:57:24;99234.72;;;21.93;100.00
37848;BME280;23688;33.130;-117.188;2023-07-30T03:59:50;99251.66;;;21.69;100.00
37848;BME280;23688;33.130;-117.188;2023-07-30T04:02:18;99248.13;;;21.70;100.00
37848;BME280;23688;33.130;-117.188;2023-07-30T04:04:46;99244.72;;;21.56;100.00
37848;BME280;23688;33.130;-117.188;2023-07-30T04:07:17;99255.31;;;21.50;100.00
37848;BME280;23688;33.130;-117.188;2023-07-30T04:09:43;99251.75;;;21.57;100.00
37848;BME280;23688;33.130;-117.188;2023-07-30T04:12:11;99260.34;;;21.82;100.00
37848;BME280;23688;33.130;-117.188;2023-07-30T04:14:37;99265.59;;;21.90;100.00
37848;BME280;23688;33.130;-117.188;2023-07-30T04:17:05;99269.06;;;21.93;100.00
37848;BME280;23688;33.130;-117.188;2023-07-30T04:19:34;99255.22;;;21.62;100.00
37848;BME280;23688;33.130;-117.188;2023-07-30T04:22:01;99275.59;;;21.45;100.00
37848;BME280;23688;33.130;-117.188;2023-07-30T04:24:27;99272.03;;;21.53;100.00
37848;BME280;23688;33.130;-117.188;2023-07-30T04:26:53;99270.19;;;21.60;100.00
37848;BME280;23688;33.130;-117.188;2023-07-30T04:29:19;99287.78;;;21.64;100.00
37848;BME280;23688;33.130;-117.188;2023-07-30T04:31:49;99284.41;;;21.42;100.00
37848;BME280;23688;33.130;-117.188;2023-07-30T04:34:15;99278.25;;;21.35;100.00
37848;BME280;23688;33.130;-117.188;2023-07-30T04:36:41;99289.69;;;21.42;100.00
37848;BME280;23688;33.130;-117.188;2023-07-30T04:39:08;99278.31;;;21.23;100.00
37848;BME280;23688;33.130;-117.188;2023-07-30T04:41:34;99281.88;;;21.19;100.00
37848;BME280;23688;33.130;-117.188;2023-07-30T04:44:00;99278.44;;;21.05;100.00
37848;BME280;23688;33.130;-117.188;2023-07-30T04:46:26;99282.78;;;21.12;100.00
37848;BME280;23688;33.130;-117.188;2023-07-30T04:48:53;99288.97;;;21.03;100.00
37848;BME280;23688;33.130;-117.188;2023-07-30T04:51:19;99284.47;;;21.27;100.00
37848;BME280;23688;33.130;-117.188;2023-07-30T04:53:48;99281.81;;;21.30;100.00
37848;BME280;23688;33.130;-117.188;2023-07-30T04:56:14;99277.41;;;21.30;100.00
37848;BME280;23688;33.130;-117.188;2023-07-30T04:58:41;99285.41;;;21.13;100.00
37848;BME280;23688;33.130;-117.188;2023-07-30T05:01:07;99295.16;;;20.99;100.00
37848;BME280;23688;33.130;-117.188;2023-07-30T05:03:35;99295.13;;;21.08;100.00
37848;BME280;23688;33.130;-117.188;2023-07-30T05:06:01;99294.28;;;20.99;100.00
37848;BME280;23688;33.130;-117.188;2023-07-30T05:08:27;99293.44;;;20.84;100.00
37848;BME280;23688;33.130;-117.188;2023-07-30T05:10:53;99290.84;;;20.72;100.00
37848;BME280;23688;33.130;-117.188;2023-07-30T05:13:20;99291.72;;;20.77;100.00
37848;BME280;23688;33.130;-117.188;2023-07-30T05:15:46;99295.13;;;21.05;100.00
37848;BME280;23688;33.130;-117.188;2023-07-30T05:18:12;99285.44;;;21.06;100.00
37848;BME280;23688;33.130;-117.188;2023-07-30T05:20:39;99287.25;;;20.94;100.00
37848;BME280;23688;33.130;-117.188;2023-07-30T05:23:07;99278.50;;;20.83;100.00
37848;BME280;23688;33.130;-117.188;2023-07-30T05:25:37;99275.88;;;20.83;100.00
37848;BME280;23688;33.130;-117.188;2023-07-30T05:28:03;99278.44;;;20.99;100.00
37848;BME280;23688;33.130;-117.188;2023-07-30T05:30:29;99275.78;;;21.05;100.00
37848;BME280;23688;33.130;-117.188;2023-07-30T05:32:55;99267.00;;;21.01;100.00
37848;BME280;23688;33.130;-117.188;2023-07-30T05:35:23;99274.81;;;21.21;100.00
37848;BME280;23688;33.130;-117.188;2023-07-30T05:37:53;99280.03;;;21.30;100.00
37848;BME280;23688;33.130;-117.188;2023-07-30T05:40:21;99288.81;;;21.40;100.00
37848;BME280;23688;33.130;-117.188;2023-07-30T05:42:48;99287.88;;;21.50;100.00
37848;BME280;23688;33.130;-117.188;2023-07-30T05:45:15;99285.25;;;21.53;100.00
37848;BME280;23688;33.130;-117.188;2023-07-30T05:47:41;99268.56;;;21.42;100.00
37848;BME280;23688;33.130;-117.188;2023-07-30T05:50:09;99286.94;;;21.59;100.00
37848;BME280;23688;33.130;-117.188;2023-07-30T05:52:37;99282.50;;;21.63;100.00
37848;BME280;23688;33.130;-117.188;2023-07-30T05:55:03;99268.47;;;21.59;100.00
37848;BME280;23688;33.130;-117.188;2023-07-30T05:57:30;99276.31;;;21.65;100.00
37848;BME280;23688;33.130;-117.188;2023-07-30T05:59:58;99286.06;;;21.62;100.00
37848;BME280;23688;33.130;-117.188;2023-07-30T06:02:26;99285.19;;;21.58;100.00
37848;BME280;23688;33.130;-117.188;2023-07-30T06:04:53;99274.66;;;21.50;100.00
37848;BME280;23688;33.130;-117.188;2023-07-30T06:07:22;99288.78;;;21.48;100.00
37848;BME280;23688;33.130;-117.188;2023-07-30T06:09:49;99284.41;;;21.44;100.00
37848;BME280;23688;33.130;-117.188;2023-07-30T06:12:17;99296.66;;;21.57;100.00
37848;BME280;23688;33.130;-117.188;2023-07-30T06:14:46;99293.97;;;21.63;100.00
37848;BME280;23688;33.130;-117.188;2023-07-30T06:17:19;99296.59;;;21.65;100.00
37848;BME280;23688;33.130;-117.188;2023-07-30T06:19:45;99283.44;;;21.58;100.00
37848;BME280;23688;33.130;-117.188;2023-07-30T06:22:11;99290.53;;;21.53;100.00
37848;BME280;23688;33.130;-117.188;2023-07-30T06:24:39;99295.81;;;21.52;100.00
37848;BME280;23688;33.130;-117.188;2023-07-30T06:27:09;99259.78;;;21.40;100.00
37848;BME280;23688;33.130;-117.188;2023-07-30T06:29:36;99286.06;;;21.60;100.00
37848;BME280;23688;33.130;-117.188;2023-07-30T06:32:02;99291.31;;;21.65;100.00
37848;BME280;23688;33.130;-117.188;2023-07-30T06:34:32;99278.13;;;21.63;100.00
37848;BME280;23688;33.130;-117.188;2023-07-30T06:36:59;99279.88;;;21.66;100.00
37848;BME280;23688;33.130;-117.188;2023-07-30T06:39:45;99274.56;;;21.70;100.00
37848;BME280;23688;33.130;-117.188;2023-07-30T06:42:11;99257.00;;;21.63;100.00
37848;BME280;23688;33.130;-117.188;2023-07-30T06:44:38;99263.97;;;21.73;100.00
37848;BME280;23688;33.130;-117.188;2023-07-30T06:47:04;99265.72;;;21.73;100.00
37848;BME280;23688;33.130;-117.188;2023-07-30T06:49:34;99264.78;;;21.77;100.00
37848;BME280;23688;33.130;-117.188;2023-07-30T06:52:01;99264.78;;;21.78;100.00
37848;BME280;23688;33.130;-117.188;2023-07-30T06:54:29;99262.19;;;21.72;100.00
37848;BME280;23688;33.130;-117.188;2023-07-30T06:56:55;99274.47;;;21.81;100.00
37848;BME280;23688;33.130;-117.188;2023-07-30T06:59:22;99273.59;;;21.80;100.00
37848;BME280;23688;33.130;-117.188;2023-07-30T07:01:48;99268.31;;;21.80;100.00
37848;BME280;23688;33.130;-117.188;2023-07-30T07:04:14;99263.00;;;21.82;100.00
37848;BME280;23688;33.130;-117.188;2023-07-30T07:06:40;99254.19;;;21.82;100.00
37848;BME280;23688;33.130;-117.188;2023-07-30T07:09:07;99263.00;;;21.84;100.00
37848;BME280;23688;33.130;-117.188;2023-07-30T07:11:33;99254.22;;;21.80;100.00
37848;BME280;23688;33.130;-117.188;2023-07-30T07:13:59;99253.34;;;21.76;100.00
37848;BME280;23688;33.130;-117.188;2023-07-30T07:16:25;99254.25;;;21.74;100.00
37848;BME280;23688;33.130;-117.188;2023-07-30T07:18:52;99240.22;;;21.67;100.00
37848;BME280;23688;33.130;-117.188;2023-07-30T07:21:18;99248.09;;;21.73;100.00
37848;BME280;23688;33.130;-117.188;2023-07-30T07:23:46;99249.88;;;21.70;100.00
37848;BME280;23688;33.130;-117.188;2023-07-30T07:26:15;99245.53;;;21.63;100.00
37848;BME280;23688;33.130;-117.188;2023-07-30T07:28:43;99245.50;;;21.67;100.00
37848;BME280;23688;33.130;-117.188;2023-07-30T07:31:10;99245.50;;;21.67;100.00
37848;BME280;23688;33.130;-117.188;2023-07-30T07:33:36;99241.09;;;21.66;100.00
37848;BME280;23688;33.130;-117.188;2023-07-30T07:36:08;99234.09;;;21.62;100.00
37848;BME280;23688;33.130;-117.188;2023-07-30T07:38:35;99236.72;;;21.64;100.00
37848;BME280;23688;33.130;-117.188;2023-07-30T07:41:01;99235.84;;;21.60;100.00
37848;BME280;23688;33.130;-117.188;2023-07-30T07:43:28;99210.44;;;21.45;100.00
37848;BME280;23688;33.130;-117.188;2023-07-30T07:45:54;99211.34;;;21.43;100.00
37848;BME280;23688;33.130;-117.188;2023-07-30T07:48:21;99221.06;;;21.39;100.00
37848;BME280;23688;33.130;-117.188;2023-07-30T07:50:47;99224.53;;;21.38;100.00
37848;BME280;23688;33.130;-117.188;2023-07-30T07:53:14;99210.53;;;21.25;100.00
37848;BME280;23688;33.130;-117.188;2023-07-30T07:55:40;99227.31;;;21.18;100.00
37848;BME280;23688;33.130;-117.188;2023-07-30T07:58:09;99224.63;;;21.29;100.00
37848;BME280;23688;33.130;-117.188;2023-07-30T08:00:35;99222.84;;;21.28;100.00
37848;BME280;23688;33.130;-117.188;2023-07-30T08:03:01;99207.09;;;21.14;100.00
37848;BME280;23688;33.130;-117.188;2023-07-30T08:05:28;99207.94;;;21.16;100.00
37848;BME280;23688;33.130;-117.188;2023-07-30T08:07:54;99203.63;;;21.04;100.00
37848;BME280;23688;33.130;-117.188;2023-07-30T08:10:20;99210.66;;;21.05;100.00
37848;BME280;23688;33.130;-117.188;2023-07-30T08:12:47;99207.25;;;20.85;100.00
37848;BME280;23688;33.130;-117.188;2023-07-30T08:15:14;99191.53;;;20.63;100.00
37848;BME280;23688;33.130;-117.188;2023-07-30T08:17:40;99201.16;;;20.72;100.00
37848;BME280;23688;33.130;-117.188;2023-07-30T08:20:07;99203.75;;;20.87;100.00
37848;BME280;23688;33.130;-117.188;2023-07-30T08:22:33;99210.72;;;20.98;100.00
37848;BME280;23688;33.130;-117.188;2023-07-30T08:25:00;99215.09;;;21.05;100.00
37848;BME280;23688;33.130;-117.188;2023-07-30T08:27:26;99229.13;;;21.07;100.00
37848;BME280;23688;33.130;-117.188;2023-07-30T08:29:52;99228.28;;;21.05;100.00
37848;BME280;23688;33.130;-117.188;2023-07-30T08:32:19;99231.75;;;21.07;100.00
37848;BME280;23688;33.130;-117.188;2023-07-30T08:37:11;99216.00;;;20.98;100.00
37848;BME280;23688;33.130;-117.188;2023-07-30T08:39:37;99226.53;;;20.94;100.00
37848;BME280;23688;33.130;-117.188;2023-07-30T08:42:03;99217.78;;;20.92;100.00
37848;BME280;23688;33.130;-117.188;2023-07-30T08:44:30;99221.25;;;21.01;100.00
37848;BME280;23688;33.130;-117.188;2023-07-30T08:46:56;99217.72;;;21.03;100.00
37848;BME280;23688;33.130;-117.188;2023-07-30T08:49:22;99228.25;;;21.08;100.00
37848;BME280;23688;33.130;-117.188;2023-07-30T08:51:52;99212.44;;;21.05;100.00
37848;BME280;23688;33.130;-117.188;2023-07-30T08:54:20;99206.31;;;21.00;100.00
37848;BME280;23688;33.130;-117.188;2023-07-30T08:56:49;99197.56;;;20.90;100.00
37848;BME280;23688;33.130;-117.188;2023-07-30T08:59:15;99208.94;;;20.98;100.00
37848;BME280;23688;33.130;-117.188;2023-07-30T09:01:43;99194.88;;;20.98;100.00
37848;BME280;23688;33.130;-117.188;2023-07-30T09:04:11;99198.38;;;21.01;100.00
37848;BME280;23688;33.130;-117.188;2023-07-30T09:06:37;99166.75;;;20.89;100.00
37848;BME280;23688;33.130;-117.188;2023-07-30T09:09:04;99172.06;;;20.90;100.00
37848;BME280;23688;33.130;-117.188;2023-07-30T09:11:31;99185.28;;;20.80;100.00
37848;BME280;23688;33.130;-117.188;2023-07-30T09:14:01;99161.66;;;20.53;100.00
37848;BME280;23688;33.130;-117.188;2023-07-30T09:16:27;99180.97;;;20.60;100.00
37848;BME280;23688;33.130;-117.188;2023-07-30T09:18:54;99172.19;;;20.60;100.00
37848;BME280;23688;33.130;-117.188;2023-07-30T09:21:32;99167.81;;;20.57;100.00
37848;BME280;23688;33.130;-117.188;2023-07-30T09:24:02;99169.59;;;20.43;100.00
37848;BME280;23688;33.130;-117.188;2023-07-30T09:26:46;99187.13;;;20.64;100.00
37848;BME280;23688;33.130;-117.188;2023-07-30T09:29:13;99191.47;;;20.72;100.00
37848;BME280;23688;33.130;-117.188;2023-07-30T09:31:53;99196.75;;;20.74;100.00
37848;BME280;23688;33.130;-117.188;2023-07-30T09:34:23;99196.72;;;20.79;100.00
37848;BME280;23688;33.130;-117.188;2023-07-30T09:36:52;99185.31;;;20.73;100.00
37848;BME280;23688;33.130;-117.188;2023-07-30T09:39:26;99166.84;;;20.73;100.00
37848;BME280;23688;33.130;-117.188;2023-07-30T09:42:00;99191.41;;;20.86;100.00
37848;BME280;23688;33.130;-117.188;2023-07-30T09:44:27;99187.88;;;20.89;100.00
37848;BME280;23688;33.130;-117.188;2023-07-30T09:46:53;99197.53;;;20.91;100.00
37848;BME280;23688;33.130;-117.188;2023-07-30T09:49:19;99167.69;;;20.83;100.00
37848;BME280;23688;33.130;-117.188;2023-07-30T09:51:46;99178.22;;;20.88;100.00
37848;BME280;23688;33.130;-117.188;2023-07-30T09:54:14;99172.97;;;20.83;100.00
37848;BME280;23688;33.130;-117.188;2023-07-30T09:56:41;99173.88;;;20.81;100.00
37848;BME280;23688;33.130;-117.188;2023-07-30T09:59:09;99173.88;;;20.76;100.00
37848;BME280;23688;33.130;-117.188;2023-07-30T10:01:40;99161.56;;;20.72;100.00
37848;BME280;23688;33.130;-117.188;2023-07-30T10:04:08;99154.56;;;20.71;100.00
37848;BME280;23688;33.130;-117.188;2023-07-30T10:06:39;99141.44;;;20.56;100.00
37848;BME280;23688;33.130;-117.188;2023-07-30T10:09:08;99132.66;;;20.43;100.00
37848;BME280;23688;33.130;-117.188;2023-07-30T10:11:37;99134.44;;;20.42;100.00
37848;BME280;23688;33.130;-117.188;2023-07-30T10:14:06;99137.94;;;20.58;100.00
37848;BME280;23688;33.130;-117.188;2023-07-30T10:16:32;99121.19;;;20.58;100.00
37848;BME280;23688;33.130;-117.188;2023-07-30T10:18:59;99118.56;;;20.64;100.00
37848;BME280;23688;33.130;-117.188;2023-07-30T10:21:26;99127.25;;;20.77;100.00
37848;BME280;23688;33.130;-117.188;2023-07-30T10:23:59;99139.50;;;20.88;100.00
37848;BME280;23688;33.130;-117.188;2023-07-30T10:26:30;99122.81;;;20.86;100.00
37848;BME280;23688;33.130;-117.188;2023-07-30T10:31:48;99131.56;;;20.93;100.00
37848;BME280;23688;33.130;-117.188;2023-07-30T10:34:15;99133.31;;;20.94;100.00
37848;BME280;23688;33.130;-117.188;2023-07-30T10:36:44;99121.06;;;20.85;100.00
37848;BME280;23688;33.130;-117.188;2023-07-30T10:39:19;99114.03;;;20.81;100.00
37848;BME280;23688;33.130;-117.188;2023-07-30T10:41:47;99126.31;;;20.90;100.00
37848;BME280;23688;33.130;-117.188;2023-07-30T10:44:22;99117.53;;;20.88;100.00
37848;BME280;23688;33.130;-117.188;2023-07-30T10:46:50;99095.69;;;20.66;100.00
37848;BME280;23688;33.130;-117.188;2023-07-30T10:49:16;99121.97;;;20.77;100.00
37848;BME280;23688;33.130;-117.188;2023-07-30T10:51:42;99114.13;;;20.69;100.00
37848;BME280;23688;33.130;-117.188;2023-07-30T10:54:09;99120.28;;;20.68;100.00
37848;BME280;23688;33.130;-117.188;2023-07-30T10:56:37;99119.41;;;20.70;100.00
37848;BME280;23688;33.130;-117.188;2023-07-30T10:59:04;99111.50;;;20.70;100.00
37848;BME280;23688;33.130;-117.188;2023-07-30T11:01:38;99105.31;;;20.71;100.00
37848;BME280;23688;33.130;-117.188;2023-07-30T11:04:14;99110.56;;;20.74;100.00
37848;BME280;23688;33.130;-117.188;2023-07-30T11:06:49;99086.03;;;20.63;100.00
37848;BME280;23688;33.130;-117.188;2023-07-30T11:09:25;99100.88;;;20.78;100.00
37848;BME280;23688;33.130;-117.188;2023-07-30T11:11:54;99096.50;;;20.74;100.00
37848;BME280;23688;33.130;-117.188;2023-07-30T11:14:25;99082.47;;;20.67;100.00
37848;BME280;23688;33.130;-117.188;2023-07-30T11:16:59;99087.72;;;20.72;100.00
37848;BME280;23688;33.130;-117.188;2023-07-30T11:19:29;99087.66;;;20.80;100.00
37848;BME280;23688;33.130;-117.188;2023-07-30T11:21:57;99081.47;;;20.82;100.00
37848;BME280;23688;33.130;-117.188;2023-07-30T11:24:34;99088.56;;;20.80;100.00
37848;BME280;23688;33.130;-117.188;2023-07-30T11:27:01;99092.03;;;20.82;100.00
37848;BME280;23688;33.130;-117.188;2023-07-30T11:29:27;99079.78;;;20.78;100.00
37848;BME280;23688;33.130;-117.188;2023-07-30T11:31:57;99085.91;;;20.77;100.00
37848;BME280;23688;33.130;-117.188;2023-07-30T11:34:25;99093.03;;;20.70;100.00
37848;BME280;23688;33.130;-117.188;2023-07-30T11:36:53;99096.53;;;20.71;100.00
37848;BME280;23688;33.130;-117.188;2023-07-30T11:39:20;99097.44;;;20.68;100.00
37848;BME280;23688;33.130;-117.188;2023-07-30T11:41:47;99090.41;;;20.64;100.00
37848;BME280;23688;33.130;-117.188;2023-07-30T11:44:35;99093.91;;;20.65;100.00
37848;BME280;23688;33.130;-117.188;2023-07-30T11:47:04;99090.41;;;20.63;100.00
37848;BME280;23688;33.130;-117.188;2023-07-30T11:49:31;99097.41;;;20.67;100.00
37848;BME280;23688;33.130;-117.188;2023-07-30T11:52:10;99096.56;;;20.63;100.00
37848;BME280;23688;33.130;-117.188;2023-07-30T11:54:37;99097.44;;;20.64;100.00
37848;BME280;23688;33.130;-117.188;2023-07-30T11:57:03;99108.88;;;20.66;100.00
37848;BME280;23688;33.130;-117.188;2023-07-30T11:59:33;99092.19;;;20.58;100.00
37848;BME280;23688;33.130;-117.188;2023-07-30T12:01:59;99100.09;;;20.64;100.00
37848;BME280;23688;33.130;-117.188;2023-07-30T12:04:31;99105.34;;;20.65;100.00
37848;BME280;23688;33.130;-117.188;2023-07-30T12:06:57;99100.94;;;20.63;100.00
37848;BME280;23688;33.130;-117.188;2023-07-30T12:09:24;99099.22;;;20.54;100.00
37848;BME280;23688;33.130;-117.188;2023-07-30T12:12:00;99106.28;;;20.57;100.00
37848;BME280;23688;33.130;-117.188;2023-07-30T12:14:29;99108.91;;;20.52;100.00
37848;BME280;23688;33.130;-117.188;2023-07-30T12:17:02;99113.28;;;20.53;100.00
37848;BME280;23688;33.130;-117.188;2023-07-30T12:19:28;99101.84;;;20.52;100.00
37848;BME280;23688;33.130;-117.188;2023-07-30T12:21:55;99109.81;;;20.43;100.00
37848;BME280;23688;33.130;-117.188;2023-07-30T12:24:21;99108.09;;;20.39;100.00
37848;BME280;23688;33.130;-117.188;2023-07-30T12:26:48;99088.81;;;20.25;100.00
37848;BME280;23688;33.130;-117.188;2023-07-30T12:29:14;99094.06;;;20.28;100.00
37848;BME280;23688;33.130;-117.188;2023-07-30T12:31:40;99094.06;;;20.28;100.00